sensor_id;sensor_type;location;lat;lon;timestamp;temperature;humidity
11704;DHT22;5908;51.354;7.458;2023-12-29T00:01:29;11.70;99.40
11704;DHT22;5908;51.354;7.458;2023-12-29T00:03:57;11.70;99.70
11704;DHT22;5908;51.354;7.458;2023-12-29T00:06:24;11.70;99.70
11704;DHT22;5908;51.354;7.458;2023-12-29T00:08:51;11.70;99.70
11704;DHT22;5908;51.354;7.458;2023-12-29T00:11:18;11.60;99.50
11704;DHT22;5908;51.354;7.458;2023-12-29T00:13:45;11.70;99.60
11704;DHT22;5908;51.354;7.458;2023-12-29T00:16:12;11.70;99.30
11704;DHT22;5908;51.354;7.458;2023-12-29T00:18:39;11.80;99.50
11704;DHT22;5908;51.354;7.458;2023-12-29T00:21:07;11.80;99.50
11704;DHT22;5908;51.354;7.458;2023-12-29T00:23:34;11.70;99.60
11704;DHT22;5908;51.354;7.458;2023-12-29T00:26:00;11.70;99.80
11704;DHT22;5908;51.354;7.458;2023-12-29T00:28:27;11.70;99.60
11704;DHT22;5908;51.354;7.458;2023-12-29T00:30:54;11.70;99.80
11704;DHT22;5908;51.354;7.458;2023-12-29T00:33:20;11.70;99.70
11704;DHT22;5908;51.354;7.458;2023-12-29T00:35:47;11.70;99.70
11704;DHT22;5908;51.354;7.458;2023-12-29T00:38:15;11.70;99.60
11704;DHT22;5908;51.354;7.458;2023-12-29T00:40:42;11.70;99.90
11704;DHT22;5908;51.354;7.458;2023-12-29T00:43:09;11.90;99.90
11704;DHT22;5908;51.354;7.458;2023-12-29T00:45:36;11.90;99.60
11704;DHT22;5908;51.354;7.458;2023-12-29T00:48:03;11.90;99.60
11704;DHT22;5908;51.354;7.458;2023-12-29T00:50:30;11.90;99.80
11704;DHT22;5908;51.354;7.458;2023-12-29T00:52:56;11.90;99.70
11704;DHT22;5908;51.354;7.458;2023-12-29T00:55:24;11.80;99.90
11704;DHT22;5908;51.354;7.458;2023-12-29T00:57:51;11.90;99.60
11704;DHT22;5908;51.354;7.458;2023-12-29T01:00:18;11.80;99.90
11704;DHT22;5908;51.354;7.458;2023-12-29T01:02:45;11.90;99.90
11704;DHT22;5908;51.354;7.458;2023-12-29T01:05:15;11.90;99.90
11704;DHT22;5908;51.354;7.458;2023-12-29T01:07:42;11.80;99.90
11704;DHT22;5908;51.354;7.458;2023-12-29T01:10:09;11.80;99.90
11704;DHT22;5908;51.354;7.458;2023-12-29T01:12:37;11.80;99.90
11704;DHT22;5908;51.354;7.458;2023-12-29T01:15:05;11.80;99.90
11704;DHT22;5908;51.354;7.458;2023-12-29T01:17:32;11.80;99.90
11704;DHT22;5908;51.354;7.458;2023-12-29T01:19:58;11.90;99.80
11704;DHT22;5908;51.354;7.458;2023-12-29T01:22:25;11.90;99.80
11704;DHT22;5908;51.354;7.458;2023-12-29T01:24:52;11.90;99.90
11704;DHT22;5908;51.354;7.458;2023-12-29T01:27:19;11.90;99.90
11704;DHT22;5908;51.354;7.458;2023-12-29T01:29:47;11.90;99.90
11704;DHT22;5908;51.354;7.458;2023-12-29T01:32:14;12.00;99.60
11704;DHT22;5908;51.354;7.458;2023-12-29T01:34:40;11.90;99.70
11704;DHT22;5908;51.354;7.458;2023-12-29T01:37:07;11.90;99.80
11704;DHT22;5908;51.354;7.458;2023-12-29T01:39:34;11.90;99.80
11704;DHT22;5908;51.354;7.458;2023-12-29T01:42:01;11.90;99.90
11704;DHT22;5908;51.354;7.458;2023-12-29T01:44:28;11.90;99.80
11704;DHT22;5908;51.354;7.458;2023-12-29T01:46:59;11.80;99.70
11704;DHT22;5908;51.354;7.458;2023-12-29T01:49:27;11.90;99.70
11704;DHT22;5908;51.354;7.458;2023-12-29T01:51:55;11.90;99.90
11704;DHT22;5908;51.354;7.458;2023-12-29T01:54:24;11.90;99.90
11704;DHT22;5908;51.354;7.458;2023-12-29T01:56:53;11.90;99.80
11704;DHT22;5908;51.354;7.458;2023-12-29T01:59:21;11.80;99.60
11704;DHT22;5908;51.354;7.458;2023-12-29T02:01:48;11.90;99.80
11704;DHT22;5908;51.354;7.458;2023-12-29T02:04:17;12.00;99.70
11704;DHT22;5908;51.354;7.458;2023-12-29T02:06:45;12.00;99.60
11704;DHT22;5908;51.354;7.458;2023-12-29T02:09:12;12.00;99.90
11704;DHT22;5908;51.354;7.458;2023-12-29T02:11:38;12.00;99.80
11704;DHT22;5908;51.354;7.458;2023-12-29T02:14:05;11.90;99.90
11704;DHT22;5908;51.354;7.458;2023-12-29T02:16:37;11.90;99.90
11704;DHT22;5908;51.354;7.458;2023-12-29T02:19:13;11.90;99.90
11704;DHT22;5908;51.354;7.458;2023-12-29T02:21:44;11.90;99.90
11704;DHT22;5908;51.354;7.458;2023-12-29T02:24:11;11.80;99.90
11704;DHT22;5908;51.354;7.458;2023-12-29T02:26:43;11.90;99.90
11704;DHT22;5908;51.354;7.458;2023-12-29T02:29:14;11.80;99.90
11704;DHT22;5908;51.354;7.458;2023-12-29T02:31:44;11.90;99.90
11704;DHT22;5908;51.354;7.458;2023-12-29T02:34:15;11.80;99.90
11704;DHT22;5908;51.354;7.458;2023-12-29T02:36:44;11.80;99.90
11704;DHT22;5908;51.354;7.458;2023-12-29T02:39:13;11.70;99.90
11704;DHT22;5908;51.354;7.458;2023-12-29T02:41:41;11.70;99.90
11704;DHT22;5908;51.354;7.458;2023-12-29T02:44:09;11.60;99.90
11704;DHT22;5908;51.354;7.458;2023-12-29T02:46:36;11.60;99.90
11704;DHT22;5908;51.354;7.458;2023-12-29T02:49:02;11.60;99.90
11704;DHT22;5908;51.354;7.458;2023-12-29T02:51:29;11.60;99.90
11704;DHT22;5908;51.354;7.458;2023-12-29T02:53:56;11.50;99.90
11704;DHT22;5908;51.354;7.458;2023-12-29T02:56:23;11.50;99.90
11704;DHT22;5908;51.354;7.458;2023-12-29T02:58:51;11.40;99.90
11704;DHT22;5908;51.354;7.458;2023-12-29T03:01:17;11.30;99.90
11704;DHT22;5908;51.354;7.458;2023-12-29T03:03:44;11.30;99.90
11704;DHT22;5908;51.354;7.458;2023-12-29T03:06:11;11.30;99.90
11704;DHT22;5908;51.354;7.458;2023-12-29T03:08:38;11.20;99.90
11704;DHT22;5908;51.354;7.458;2023-12-29T03:11:04;11.10;99.90
11704;DHT22;5908;51.354;7.458;2023-12-29T03:13:31;10.90;99.90
11704;DHT22;5908;51.354;7.458;2023-12-29T03:15:59;11.00;99.90
11704;DHT22;5908;51.354;7.458;2023-12-29T03:18:26;11.10;99.90
11704;DHT22;5908;51.354;7.458;2023-12-29T03:20:53;11.20;99.90
11704;DHT22;5908;51.354;7.458;2023-12-29T03:23:20;11.10;99.90
11704;DHT22;5908;51.354;7.458;2023-12-29T03:25:47;11.00;99.90
11704;DHT22;5908;51.354;7.458;2023-12-29T03:28:13;11.00;99.90
11704;DHT22;5908;51.354;7.458;2023-12-29T03:30:40;11.10;99.90
11704;DHT22;5908;51.354;7.458;2023-12-29T03:33:08;11.20;99.90
11704;DHT22;5908;51.354;7.458;2023-12-29T03:35:35;11.20;99.90
11704;DHT22;5908;51.354;7.458;2023-12-29T03:38:02;11.30;99.90
11704;DHT22;5908;51.354;7.458;2023-12-29T03:40:29;11.30;99.90
11704;DHT22;5908;51.354;7.458;2023-12-29T03:42:55;11.20;99.90
11704;DHT22;5908;51.354;7.458;2023-12-29T03:45:22;11.20;99.90
11704;DHT22;5908;51.354;7.458;2023-12-29T03:47:49;11.20;99.90
11704;DHT22;5908;51.354;7.458;2023-12-29T03:50:17;11.30;99.90
11704;DHT22;5908;51.354;7.458;2023-12-29T03:52:43;11.40;99.90
11704;DHT22;5908;51.354;7.458;2023-12-29T03:55:10;11.40;99.90
11704;DHT22;5908;51.354;7.458;2023-12-29T03:57:37;11.30;99.90
11704;DHT22;5908;51.354;7.458;2023-12-29T04:00:05;11.40;99.90
11704;DHT22;5908;51.354;7.458;2023-12-29T04:02:32;11.40;99.90
11704;DHT22;5908;51.354;7.458;2023-12-29T04:04:59;11.40;99.90
11704;DHT22;5908;51.354;7.458;2023-12-29T04:07:28;11.30;99.90
11704;DHT22;5908;51.354;7.458;2023-12-29T04:09:54;11.40;99.90
11704;DHT22;5908;51.354;7.458;2023-12-29T04:12:21;11.50;99.90
11704;DHT22;5908;51.354;7.458;2023-12-29T04:14:48;11.50;99.90
11704;DHT22;5908;51.354;7.458;2023-12-29T04:17:15;11.50;99.90
11704;DHT22;5908;51.354;7.458;2023-12-29T04:19:42;11.50;99.90
11704;DHT22;5908;51.354;7.458;2023-12-29T04:22:09;11.50;99.90
11704;DHT22;5908;51.354;7.458;2023-12-29T04:24:38;11.50;99.90
11704;DHT22;5908;51.354;7.458;2023-12-29T04:27:05;11.50;99.90
11704;DHT22;5908;51.354;7.458;2023-12-29T04:29:32;11.50;99.90
11704;DHT22;5908;51.354;7.458;2023-12-29T04:31:59;11.50;99.90
11704;DHT22;5908;51.354;7.458;2023-12-29T04:34:26;11.60;99.90
11704;DHT22;5908;51.354;7.458;2023-12-29T04:36:52;11.60;99.90
11704;DHT22;5908;51.354;7.458;2023-12-29T04:39:19;11.60;99.90
11704;DHT22;5908;51.354;7.458;2023-12-29T04:41:47;11.60;99.90
11704;DHT22;5908;51.354;7.458;2023-12-29T04:44:14;11.50;99.90
11704;DHT22;5908;51.354;7.458;2023-12-29T04:46:41;11.60;99.90
11704;DHT22;5908;51.354;7.458;2023-12-29T04:49:07;11.40;99.90
11704;DHT22;5908;51.354;7.458;2023-12-29T04:51:34;11.30;99.90
11704;DHT22;5908;51.354;7.458;2023-12-29T04:54:01;11.20;99.90
11704;DHT22;5908;51.354;7.458;2023-12-29T04:56:28;11.10;99.90
11704;DHT22;5908;51.354;7.458;2023-12-29T04:58:56;11.00;99.90
11704;DHT22;5908;51.354;7.458;2023-12-29T05:01:24;10.90;99.90
11704;DHT22;5908;51.354;7.458;2023-12-29T05:03:51;11.00;99.90
11704;DHT22;5908;51.354;7.458;2023-12-29T05:06:18;11.00;99.90
11704;DHT22;5908;51.354;7.458;2023-12-29T05:08:45;11.00;99.90
11704;DHT22;5908;51.354;7.458;2023-12-29T05:11:11;11.00;99.90
11704;DHT22;5908;51.354;7.458;2023-12-29T05:13:38;11.00;99.90
11704;DHT22;5908;51.354;7.458;2023-12-29T05:16:07;11.00;99.90
11704;DHT22;5908;51.354;7.458;2023-12-29T05:18:33;11.10;99.90
11704;DHT22;5908;51.354;7.458;2023-12-29T05:21:00;11.20;99.90
11704;DHT22;5908;51.354;7.458;2023-12-29T05:23:27;11.20;99.90
11704;DHT22;5908;51.354;7.458;2023-12-29T05:25:53;11.30;99.90
11704;DHT22;5908;51.354;7.458;2023-12-29T05:28:20;11.30;99.90
11704;DHT22;5908;51.354;7.458;2023-12-29T05:30:47;11.40;99.90
11704;DHT22;5908;51.354;7.458;2023-12-29T05:33:15;11.30;99.90
11704;DHT22;5908;51.354;7.458;2023-12-29T05:35:42;11.40;99.90
11704;DHT22;5908;51.354;7.458;2023-12-29T05:38:08;11.40;99.90
11704;DHT22;5908;51.354;7.458;2023-12-29T05:40:35;11.30;99.90
11704;DHT22;5908;51.354;7.458;2023-12-29T05:43:02;11.40;99.90
11704;DHT22;5908;51.354;7.458;2023-12-29T05:45:29;11.40;99.90
11704;DHT22;5908;51.354;7.458;2023-12-29T05:47:55;11.40;99.90
11704;DHT22;5908;51.354;7.458;2023-12-29T05:50:23;11.50;99.90
11704;DHT22;5908;51.354;7.458;2023-12-29T05:52:50;11.50;99.90
11704;DHT22;5908;51.354;7.458;2023-12-29T05:55:17;11.50;99.90
11704;DHT22;5908;51.354;7.458;2023-12-29T05:57:44;11.40;99.90
11704;DHT22;5908;51.354;7.458;2023-12-29T06:00:11;11.40;99.90
11704;DHT22;5908;51.354;7.458;2023-12-29T06:02:40;11.50;99.90
11704;DHT22;5908;51.354;7.458;2023-12-29T06:05:07;11.50;99.90
11704;DHT22;5908;51.354;7.458;2023-12-29T06:07:36;11.60;99.90
11704;DHT22;5908;51.354;7.458;2023-12-29T06:10:04;11.60;99.90
11704;DHT22;5908;51.354;7.458;2023-12-29T06:12:31;11.50;99.90
11704;DHT22;5908;51.354;7.458;2023-12-29T06:14:57;11.60;99.90
11704;DHT22;5908;51.354;7.458;2023-12-29T06:17:24;11.60;99.90
11704;DHT22;5908;51.354;7.458;2023-12-29T06:19:51;11.50;99.90
11704;DHT22;5908;51.354;7.458;2023-12-29T06:22:18;11.50;99.90
11704;DHT22;5908;51.354;7.458;2023-12-29T06:24:46;11.60;99.90
11704;DHT22;5908;51.354;7.458;2023-12-29T06:27:13;11.60;99.90
11704;DHT22;5908;51.354;7.458;2023-12-29T06:29:41;11.50;99.90
11704;DHT22;5908;51.354;7.458;2023-12-29T06:32:07;11.60;99.90
11704;DHT22;5908;51.354;7.458;2023-12-29T06:34:34;11.60;99.90
11704;DHT22;5908;51.354;7.458;2023-12-29T06:37:01;11.50;99.90
11704;DHT22;5908;51.354;7.458;2023-12-29T06:39:28;11.40;99.90
11704;DHT22;5908;51.354;7.458;2023-12-29T06:41:56;11.40;99.90
11704;DHT22;5908;51.354;7.458;2023-12-29T06:44:23;11.40;99.90
11704;DHT22;5908;51.354;7.458;2023-12-29T06:46:49;11.40;99.90
11704;DHT22;5908;51.354;7.458;2023-12-29T06:49:16;11.40;99.90
11704;DHT22;5908;51.354;7.458;2023-12-29T06:51:43;11.40;99.90
11704;DHT22;5908;51.354;7.458;2023-12-29T06:54:10;11.30;99.90
11704;DHT22;5908;51.354;7.458;2023-12-29T06:56:36;11.30;99.90
11704;DHT22;5908;51.354;7.458;2023-12-29T06:59:04;11.40;99.90
11704;DHT22;5908;51.354;7.458;2023-12-29T07:01:32;11.30;99.90
11704;DHT22;5908;51.354;7.458;2023-12-29T07:03:59;11.30;99.90
11704;DHT22;5908;51.354;7.458;2023-12-29T07:06:26;11.40;99.90
11704;DHT22;5908;51.354;7.458;2023-12-29T07:08:52;11.40;99.90
11704;DHT22;5908;51.354;7.458;2023-12-29T07:11:19;11.40;99.90
11704;DHT22;5908;51.354;7.458;2023-12-29T07:13:46;11.40;99.90
11704;DHT22;5908;51.354;7.458;2023-12-29T07:16:14;11.40;99.90
11704;DHT22;5908;51.354;7.458;2023-12-29T07:18:41;11.40;99.90
11704;DHT22;5908;51.354;7.458;2023-12-29T07:21:08;11.50;99.90
11704;DHT22;5908;51.354;7.458;2023-12-29T07:23:34;11.50;99.90
11704;DHT22;5908;51.354;7.458;2023-12-29T07:26:01;11.40;99.90
11704;DHT22;5908;51.354;7.458;2023-12-29T07:28:28;11.40;99.90
11704;DHT22;5908;51.354;7.458;2023-12-29T07:30:55;11.30;99.90
11704;DHT22;5908;51.354;7.458;2023-12-29T07:33:23;11.30;99.90
11704;DHT22;5908;51.354;7.458;2023-12-29T07:35:50;11.30;99.90
11704;DHT22;5908;51.354;7.458;2023-12-29T07:38:16;11.30;99.90
11704;DHT22;5908;51.354;7.458;2023-12-29T07:40:43;11.30;99.90
11704;DHT22;5908;51.354;7.458;2023-12-29T07:43:10;11.30;99.90
11704;DHT22;5908;51.354;7.458;2023-12-29T07:45:37;11.30;99.90
11704;DHT22;5908;51.354;7.458;2023-12-29T07:48:04;11.40;99.90
11704;DHT22;5908;51.354;7.458;2023-12-29T07:50:33;11.30;99.90
11704;DHT22;5908;51.354;7.458;2023-12-29T07:53:00;11.40;99.90
11704;DHT22;5908;51.354;7.458;2023-12-29T07:55:28;11.30;99.90
11704;DHT22;5908;51.354;7.458;2023-12-29T07:57:55;11.30;99.90
11704;DHT22;5908;51.354;7.458;2023-12-29T08:00:22;11.20;99.90
11704;DHT22;5908;51.354;7.458;2023-12-29T08:02:49;11.20;99.90
11704;DHT22;5908;51.354;7.458;2023-12-29T08:05:17;11.20;99.90
11704;DHT22;5908;51.354;7.458;2023-12-29T08:07:45;11.10;99.90
11704;DHT22;5908;51.354;7.458;2023-12-29T08:10:11;11.00;99.90
11704;DHT22;5908;51.354;7.458;2023-12-29T08:12:38;10.90;99.90
11704;DHT22;5908;51.354;7.458;2023-12-29T08:15:05;10.90;99.90
11704;DHT22;5908;51.354;7.458;2023-12-29T08:17:32;10.80;99.90
11704;DHT22;5908;51.354;7.458;2023-12-29T08:19:58;10.80;99.90
11704;DHT22;5908;51.354;7.458;2023-12-29T08:22:27;10.80;99.90
11704;DHT22;5908;51.354;7.458;2023-12-29T08:24:55;10.70;99.90
11704;DHT22;5908;51.354;7.458;2023-12-29T08:27:25;10.70;99.90
11704;DHT22;5908;51.354;7.458;2023-12-29T08:29:51;10.80;99.90
11704;DHT22;5908;51.354;7.458;2023-12-29T08:32:19;10.80;99.90
11704;DHT22;5908;51.354;7.458;2023-12-29T08:34:46;10.80;99.90
11704;DHT22;5908;51.354;7.458;2023-12-29T08:37:12;10.80;99.90
11704;DHT22;5908;51.354;7.458;2023-12-29T08:39:41;10.90;99.90
11704;DHT22;5908;51.354;7.458;2023-12-29T08:42:09;10.80;99.90
11704;DHT22;5908;51.354;7.458;2023-12-29T08:44:36;10.80;99.90
11704;DHT22;5908;51.354;7.458;2023-12-29T08:47:03;10.80;99.90
11704;DHT22;5908;51.354;7.458;2023-12-29T08:49:33;10.80;99.90
11704;DHT22;5908;51.354;7.458;2023-12-29T08:51:59;10.80;99.90
11704;DHT22;5908;51.354;7.458;2023-12-29T08:54:26;10.80;99.90
11704;DHT22;5908;51.354;7.458;2023-12-29T08:56:53;10.80;99.90
11704;DHT22;5908;51.354;7.458;2023-12-29T08:59:21;10.90;99.90
11704;DHT22;5908;51.354;7.458;2023-12-29T09:01:48;10.90;99.90
11704;DHT22;5908;51.354;7.458;2023-12-29T09:04:15;10.80;99.90
11704;DHT22;5908;51.354;7.458;2023-12-29T09:06:42;10.80;99.90
11704;DHT22;5908;51.354;7.458;2023-12-29T09:09:08;10.80;99.90
11704;DHT22;5908;51.354;7.458;2023-12-29T09:11:38;10.80;99.90
11704;DHT22;5908;51.354;7.458;2023-12-29T09:14:04;10.60;99.90
11704;DHT22;5908;51.354;7.458;2023-12-29T09:16:33;10.60;99.90
11704;DHT22;5908;51.354;7.458;2023-12-29T09:18:59;10.60;99.90
11704;DHT22;5908;51.354;7.458;2023-12-29T09:21:26;10.70;99.90
11704;DHT22;5908;51.354;7.458;2023-12-29T09:23:52;10.80;99.90
11704;DHT22;5908;51.354;7.458;2023-12-29T09:26:19;10.80;99.90
11704;DHT22;5908;51.354;7.458;2023-12-29T09:28:46;10.80;99.90
11704;DHT22;5908;51.354;7.458;2023-12-29T09:31:12;10.90;99.90
11704;DHT22;5908;51.354;7.458;2023-12-29T09:33:40;10.90;99.90
11704;DHT22;5908;51.354;7.458;2023-12-29T09:36:07;10.80;99.90
11704;DHT22;5908;51.354;7.458;2023-12-29T09:38:33;10.90;99.90
11704;DHT22;5908;51.354;7.458;2023-12-29T09:41:04;10.90;99.90
11704;DHT22;5908;51.354;7.458;2023-12-29T09:43:31;11.00;99.90
11704;DHT22;5908;51.354;7.458;2023-12-29T09:45:58;11.00;99.90
11704;DHT22;5908;51.354;7.458;2023-12-29T09:48:25;11.00;99.90
11704;DHT22;5908;51.354;7.458;2023-12-29T09:50:54;11.10;99.90
11704;DHT22;5908;51.354;7.458;2023-12-29T09:53:20;11.20;99.90
11704;DHT22;5908;51.354;7.458;2023-12-29T09:55:48;11.20;99.90
11704;DHT22;5908;51.354;7.458;2023-12-29T09:58:15;11.20;99.90
11704;DHT22;5908;51.354;7.458;2023-12-29T10:00:42;11.30;99.90
11704;DHT22;5908;51.354;7.458;2023-12-29T10:03:08;11.30;99.90
11704;DHT22;5908;51.354;7.458;2023-12-29T10:05:35;11.30;99.90
11704;DHT22;5908;51.354;7.458;2023-12-29T10:08:03;11.20;99.90
11704;DHT22;5908;51.354;7.458;2023-12-29T10:10:31;11.20;99.90
11704;DHT22;5908;51.354;7.458;2023-12-29T10:13:00;11.20;99.90
11704;DHT22;5908;51.354;7.458;2023-12-29T10:15:29;11.20;99.90
11704;DHT22;5908;51.354;7.458;2023-12-29T10:18:01;11.20;99.90
11704;DHT22;5908;51.354;7.458;2023-12-29T10:20:32;11.20;99.90
11704;DHT22;5908;51.354;7.458;2023-12-29T10:23:06;11.20;99.90
11704;DHT22;5908;51.354;7.458;2023-12-29T10:25:34;11.20;99.90
11704;DHT22;5908;51.354;7.458;2023-12-29T10:28:01;11.10;99.90
11704;DHT22;5908;51.354;7.458;2023-12-29T10:30:28;11.10;99.90
11704;DHT22;5908;51.354;7.458;2023-12-29T10:32:55;11.00;99.90
11704;DHT22;5908;51.354;7.458;2023-12-29T10:35:22;11.10;99.90
11704;DHT22;5908;51.354;7.458;2023-12-29T10:37:49;11.10;99.90
11704;DHT22;5908;51.354;7.458;2023-12-29T10:40:17;11.00;99.90
11704;DHT22;5908;51.354;7.458;2023-12-29T10:42:53;11.00;99.90
11704;DHT22;5908;51.354;7.458;2023-12-29T10:45:21;11.00;99.90
11704;DHT22;5908;51.354;7.458;2023-12-29T10:47:50;11.10;99.90
11704;DHT22;5908;51.354;7.458;2023-12-29T10:50:17;11.10;99.90
11704;DHT22;5908;51.354;7.458;2023-12-29T10:52:43;11.20;99.90
11704;DHT22;5908;51.354;7.458;2023-12-29T10:55:12;11.40;99.90
11704;DHT22;5908;51.354;7.458;2023-12-29T10:57:40;11.30;99.90
11704;DHT22;5908;51.354;7.458;2023-12-29T11:00:08;11.40;99.90
11704;DHT22;5908;51.354;7.458;2023-12-29T11:02:37;11.40;99.90
11704;DHT22;5908;51.354;7.458;2023-12-29T11:05:06;11.40;99.90
11704;DHT22;5908;51.354;7.458;2023-12-29T11:07:34;11.40;99.90
11704;DHT22;5908;51.354;7.458;2023-12-29T11:10:03;11.40;99.90
11704;DHT22;5908;51.354;7.458;2023-12-29T11:12:34;11.40;99.90
11704;DHT22;5908;51.354;7.458;2023-12-29T11:15:04;11.50;99.90
11704;DHT22;5908;51.354;7.458;2023-12-29T11:17:33;11.50;99.90
11704;DHT22;5908;51.354;7.458;2023-12-29T11:20:01;11.40;99.90
11704;DHT22;5908;51.354;7.458;2023-12-29T11:22:29;11.40;99.90
11704;DHT22;5908;51.354;7.458;2023-12-29T11:24:56;11.50;99.90
11704;DHT22;5908;51.354;7.458;2023-12-29T11:27:27;11.30;99.90
11704;DHT22;5908;51.354;7.458;2023-12-29T11:29:55;11.40;99.90
11704;DHT22;5908;51.354;7.458;2023-12-29T11:32:29;11.30;99.90
11704;DHT22;5908;51.354;7.458;2023-12-29T11:35:09;11.30;99.90
11704;DHT22;5908;51.354;7.458;2023-12-29T11:38:07;11.40;99.90
11704;DHT22;5908;51.354;7.458;2023-12-29T11:40:41;11.50;99.90
11704;DHT22;5908;51.354;7.458;2023-12-29T11:43:12;11.70;99.90
11704;DHT22;5908;51.354;7.458;2023-12-29T11:45:40;11.80;99.90
11704;DHT22;5908;51.354;7.458;2023-12-29T11:48:08;11.80;99.90
11704;DHT22;5908;51.354;7.458;2023-12-29T11:50:37;11.80;99.90
11704;DHT22;5908;51.354;7.458;2023-12-29T11:53:06;11.90;99.90
11704;DHT22;5908;51.354;7.458;2023-12-29T11:55:34;11.90;99.90
11704;DHT22;5908;51.354;7.458;2023-12-29T11:58:02;12.10;99.90
11704;DHT22;5908;51.354;7.458;2023-12-29T12:00:43;12.20;99.90
11704;DHT22;5908;51.354;7.458;2023-12-29T12:03:25;12.10;99.90
11704;DHT22;5908;51.354;7.458;2023-12-29T12:05:53;12.10;99.90
11704;DHT22;5908;51.354;7.458;2023-12-29T12:08:30;12.20;99.90
11704;DHT22;5908;51.354;7.458;2023-12-29T12:14:03;12.20;99.90
11704;DHT22;5908;51.354;7.458;2023-12-29T12:16:49;12.10;99.90
11704;DHT22;5908;51.354;7.458;2023-12-29T12:19:20;11.90;99.90
11704;DHT22;5908;51.354;7.458;2023-12-29T12:21:51;11.80;99.90
11704;DHT22;5908;51.354;7.458;2023-12-29T12:24:19;11.60;99.90
11704;DHT22;5908;51.354;7.458;2023-12-29T12:26:46;11.60;99.90
11704;DHT22;5908;51.354;7.458;2023-12-29T12:29:14;11.60;99.90
11704;DHT22;5908;51.354;7.458;2023-12-29T12:31:52;11.60;99.90
11704;DHT22;5908;51.354;7.458;2023-12-29T12:34:20;11.60;99.90
11704;DHT22;5908;51.354;7.458;2023-12-29T12:36:48;11.70;99.90
11704;DHT22;5908;51.354;7.458;2023-12-29T12:39:15;11.60;99.90
11704;DHT22;5908;51.354;7.458;2023-12-29T12:41:43;11.50;99.90
11704;DHT22;5908;51.354;7.458;2023-12-29T12:44:11;11.50;99.90
11704;DHT22;5908;51.354;7.458;2023-12-29T12:46:41;11.50;99.90
11704;DHT22;5908;51.354;7.458;2023-12-29T12:49:11;11.60;99.90
11704;DHT22;5908;51.354;7.458;2023-12-29T12:51:39;11.50;99.90
11704;DHT22;5908;51.354;7.458;2023-12-29T12:54:07;11.50;99.90
11704;DHT22;5908;51.354;7.458;2023-12-29T12:56:34;11.40;99.90
11704;DHT22;5908;51.354;7.458;2023-12-29T12:59:02;11.30;99.90
11704;DHT22;5908;51.354;7.458;2023-12-29T13:01:30;11.20;99.90
11704;DHT22;5908;51.354;7.458;2023-12-29T13:04:01;11.30;99.90
11704;DHT22;5908;51.354;7.458;2023-12-29T13:06:28;11.30;99.90
11704;DHT22;5908;51.354;7.458;2023-12-29T13:08:56;11.40;99.90
11704;DHT22;5908;51.354;7.458;2023-12-29T13:11:23;11.40;99.90
11704;DHT22;5908;51.354;7.458;2023-12-29T13:13:51;11.30;99.90
11704;DHT22;5908;51.354;7.458;2023-12-29T13:16:29;11.20;99.90
11704;DHT22;5908;51.354;7.458;2023-12-29T13:18:56;11.20;99.90
11704;DHT22;5908;51.354;7.458;2023-12-29T13:21:23;11.20;99.90
11704;DHT22;5908;51.354;7.458;2023-12-29T13:23:50;11.20;99.90
11704;DHT22;5908;51.354;7.458;2023-12-29T13:26:18;11.30;99.90
11704;DHT22;5908;51.354;7.458;2023-12-29T13:28:46;11.30;99.90
11704;DHT22;5908;51.354;7.458;2023-12-29T13:31:13;11.30;99.90
11704;DHT22;5908;51.354;7.458;2023-12-29T13:33:48;11.30;99.90
11704;DHT22;5908;51.354;7.458;2023-12-29T13:36:25;11.20;99.90
11704;DHT22;5908;51.354;7.458;2023-12-29T13:38:59;11.20;99.90
11704;DHT22;5908;51.354;7.458;2023-12-29T13:41:32;11.30;99.90
11704;DHT22;5908;51.354;7.458;2023-12-29T13:44:00;11.30;99.90
11704;DHT22;5908;51.354;7.458;2023-12-29T13:46:28;11.20;99.90
11704;DHT22;5908;51.354;7.458;2023-12-29T13:48:56;11.30;99.90
11704;DHT22;5908;51.354;7.458;2023-12-29T13:51:24;11.30;99.90
11704;DHT22;5908;51.354;7.458;2023-12-29T13:53:58;11.30;99.90
11704;DHT22;5908;51.354;7.458;2023-12-29T13:56:24;11.30;99.90
11704;DHT22;5908;51.354;7.458;2023-12-29T13:58:52;11.20;99.90
11704;DHT22;5908;51.354;7.458;2023-12-29T14:01:19;11.20;99.90
11704;DHT22;5908;51.354;7.458;2023-12-29T14:03:47;11.30;99.90
11704;DHT22;5908;51.354;7.458;2023-12-29T14:06:20;11.30;99.90
11704;DHT22;5908;51.354;7.458;2023-12-29T14:08:48;11.30;99.90
11704;DHT22;5908;51.354;7.458;2023-12-29T14:11:15;11.40;99.90
11704;DHT22;5908;51.354;7.458;2023-12-29T14:13:42;11.40;99.90
11704;DHT22;5908;51.354;7.458;2023-12-29T14:16:11;11.40;99.90
11704;DHT22;5908;51.354;7.458;2023-12-29T14:18:54;11.30;99.90
11704;DHT22;5908;51.354;7.458;2023-12-29T14:21:27;11.30;99.90
11704;DHT22;5908;51.354;7.458;2023-12-29T14:24:11;11.40;99.90
11704;DHT22;5908;51.354;7.458;2023-12-29T14:26:40;11.30;99.90
11704;DHT22;5908;51.354;7.458;2023-12-29T14:29:11;11.30;99.90
11704;DHT22;5908;51.354;7.458;2023-12-29T14:31:41;11.40;99.90
11704;DHT22;5908;51.354;7.458;2023-12-29T14:34:09;11.40;99.90
11704;DHT22;5908;51.354;7.458;2023-12-29T14:36:37;11.40;99.90
11704;DHT22;5908;51.354;7.458;2023-12-29T14:39:04;11.40;99.90
11704;DHT22;5908;51.354;7.458;2023-12-29T14:41:32;11.30;99.90
11704;DHT22;5908;51.354;7.458;2023-12-29T14:43:59;11.40;99.90
11704;DHT22;5908;51.354;7.458;2023-12-29T14:46:26;11.40;99.90
11704;DHT22;5908;51.354;7.458;2023-12-29T14:48:55;11.40;99.90
11704;DHT22;5908;51.354;7.458;2023-12-29T14:51:22;11.40;99.90
11704;DHT22;5908;51.354;7.458;2023-12-29T14:53:50;11.40;99.90
11704;DHT22;5908;51.354;7.458;2023-12-29T14:56:17;11.40;99.90
11704;DHT22;5908;51.354;7.458;2023-12-29T14:58:44;11.40;99.90
11704;DHT22;5908;51.354;7.458;2023-12-29T15:01:11;11.30;99.90
11704;DHT22;5908;51.354;7.458;2023-12-29T15:03:38;11.20;99.90
11704;DHT22;5908;51.354;7.458;2023-12-29T15:06:06;11.20;99.90
11704;DHT22;5908;51.354;7.458;2023-12-29T15:08:33;11.10;99.90
11704;DHT22;5908;51.354;7.458;2023-12-29T15:11:01;11.00;99.90
11704;DHT22;5908;51.354;7.458;2023-12-29T15:13:28;11.00;99.90
11704;DHT22;5908;51.354;7.458;2023-12-29T15:15:56;10.90;99.90
11704;DHT22;5908;51.354;7.458;2023-12-29T15:18:24;10.90;99.90
11704;DHT22;5908;51.354;7.458;2023-12-29T15:20:51;10.90;99.90
11704;DHT22;5908;51.354;7.458;2023-12-29T15:23:19;10.90;99.90
11704;DHT22;5908;51.354;7.458;2023-12-29T15:25:46;10.80;99.90
11704;DHT22;5908;51.354;7.458;2023-12-29T15:28:13;10.80;99.90
11704;DHT22;5908;51.354;7.458;2023-12-29T15:30:42;10.70;99.90
11704;DHT22;5908;51.354;7.458;2023-12-29T15:33:09;10.70;99.90
11704;DHT22;5908;51.354;7.458;2023-12-29T15:35:36;10.60;99.90
11704;DHT22;5908;51.354;7.458;2023-12-29T15:38:03;10.70;99.90
11704;DHT22;5908;51.354;7.458;2023-12-29T15:40:31;10.60;99.90
11704;DHT22;5908;51.354;7.458;2023-12-29T15:42:58;10.60;99.90
11704;DHT22;5908;51.354;7.458;2023-12-29T15:45:25;10.70;99.90
11704;DHT22;5908;51.354;7.458;2023-12-29T15:47:52;10.70;99.90
11704;DHT22;5908;51.354;7.458;2023-12-29T15:50:19;10.70;99.90
11704;DHT22;5908;51.354;7.458;2023-12-29T15:52:45;10.80;99.90